Etusivu
METAR-TAF:

METAR-TAF

Lentoasemat :

Kalmar, Ruotsi

Kalmarin lentoasema

Leveyspiiri: 56-44N, Pituuspiiri: 016-18E, korkeus merenpinnasta: 16 m

Tämänhetkinen sää

Tämä raportti tehtiin 25 minuuttia sitten, kello 15.20 UTC
Tuuli 3 kn koillisesta, vaihdellen pohjoisen ja idän välillä
Lämpötila 14°C
Kosteus 77%
Ilmanpaine 1020 hPa
Näkyvyys 10 km tai enemmän
Muutamia pilviä 4400 ft:n korkeudessa

METAR: ESMQ 211520Z 05003KT 360V080 9999 FEW044 14/10 Q1020

Aika: 17:45 (15:45 UTC)

Sääennuste

Tämä raportti tehtiin 1 tunti ja 15 minuuttia sitten, kello 14.30 UTC
Ennuste voimassa 21. päivästä klo 15 UTC - 21. päivään klo 22 UTC
Tuuli 5 kn pohjoisesta/koillisesta
Näkyvyys 10 km tai enemmän
Hajanaisia pilviä 2500 ft:n korkeudessa
Ajoittain
21. päivästä klo 20 UTC - 21. päivään klo 22 UTC
Näkyvyys: 3000 m
utua, Matala sumu

TAF: ESMQ 211430Z 2115/2122 03005KT 9999 SCT025 TEMPO 2120/2122 3000 BR MIFG

Säähavainnot ja -ennusteet yli 4000 lentoasemalta (METAR- ja TAF-raportit).

Käytössä olevat sääasemat on merkitty karttaan keltaisilla ja punaisilla pisteillä.

Aseta hiiri pisteen päälle nähdäksesi sääaseman nimen.

Klikkaa sitten nähdäksesi säähavainnot ja -ennusteet.

Kartan vaihtaminen: klikkaa mustalla rastilla varustettuja vihreitä pisteitä, niin voit zoomata sisään; viivalla varustettua vihreää pistettä, niin voit zoomata ulos tai vihreitä nuolia, niin pääset viereisille kartoille.


METAR-TAF: